Terminal Aerodrome Forecast
Issued by NWS Shreveport, LA

Home | Current Version | Previous Version | Text Only | Print | Product List | Glossary On
Versions: 1 2 3 4 5 6 7 8 9 10 11 12 13 14 15 16 17 18 19 20 21 22 23 24 25
505
FTUS44 KSHV 301402 AAA
TAFTYR
TAF AMD
KTYR 301402Z 3014/3112 VRB02KT 3SM BR BKN250
     FM301600 08006KT P6SM BKN020
     FM301800 07006KT P6SM VCSH BKN030
     FM302100 07006KT P6SM VCSH SCT040 BKN250
     FM310100 12004KT P6SM SCT040 BKN250
     FM310900 VRB02KT 6SM BR SCT020 BKN250=

USA.gov is the U.S. government's official web portal to all federal, state and local government web resources and services.